createdAt,value
2018-10-17T00:00:02.425Z,99.90
2018-10-17T00:02:31.084Z,99.90
2018-10-17T00:04:59.637Z,99.90
2018-10-17T00:07:28.087Z,99.90
2018-10-17T00:09:56.623Z,99.90
2018-10-17T00:12:25.153Z,99.90
2018-10-17T00:14:53.711Z,99.90
2018-10-17T00:17:22.220Z,99.90
2018-10-17T00:19:50.716Z,99.90
2018-10-17T00:22:19.184Z,99.90
2018-10-17T00:24:47.700Z,99.90
2018-10-17T00:27:18.234Z,99.90
2018-10-17T00:29:46.757Z,99.90
2018-10-17T00:32:15.307Z,99.90
2018-10-17T00:34:43.818Z,99.90
2018-10-17T00:37:12.481Z,99.90
2018-10-17T00:39:40.883Z,99.90
2018-10-17T00:42:09.384Z,99.90
2018-10-17T00:44:37.907Z,99.90
2018-10-17T00:47:06.647Z,99.90
2018-10-17T00:49:35.078Z,99.90
2018-10-17T00:52:03.578Z,99.90
2018-10-17T00:54:32.075Z,99.90
2018-10-17T00:57:01.611Z,99.90
2018-10-17T00:59:30.136Z,99.90
2018-10-17T01:01:58.632Z,99.90
2018-10-17T01:04:27.120Z,99.90
2018-10-17T01:06:55.648Z,99.90
2018-10-17T01:09:24.156Z,99.90
2018-10-17T01:11:52.610Z,99.90
2018-10-17T01:14:22.203Z,99.90
2018-10-17T01:16:50.792Z,99.90
2018-10-17T01:19:19.303Z,99.90
2018-10-17T01:21:47.892Z,99.90
2018-10-17T01:24:16.432Z,99.90
2018-10-17T01:26:44.900Z,99.90
2018-10-17T01:29:13.500Z,99.90
2018-10-17T01:31:41.988Z,99.90
2018-10-17T01:34:10.499Z,99.90
2018-10-17T01:36:38.988Z,99.90
2018-10-17T01:39:09.114Z,99.90
2018-10-17T01:41:37.718Z,99.90
2018-10-17T01:44:06.767Z,99.90
2018-10-17T01:46:35.406Z,99.90
2018-10-17T01:49:03.982Z,99.90
2018-10-17T01:51:32.523Z,99.90
2018-10-17T01:54:02.107Z,99.90
2018-10-17T01:56:30.639Z,99.90
2018-10-17T01:58:59.131Z,99.90
2018-10-17T02:01:27.631Z,99.90
2018-10-17T02:03:56.092Z,99.90
2018-10-17T02:06:25.464Z,99.90
2018-10-17T02:08:55.045Z,99.90
2018-10-17T02:11:23.570Z,99.90
2018-10-17T02:13:52.079Z,99.90
2018-10-17T02:16:20.585Z,99.90
2018-10-17T02:18:49.151Z,99.90
2018-10-17T02:21:17.673Z,99.90
2018-10-17T02:23:46.153Z,99.90
2018-10-17T02:26:14.659Z,99.90
2018-10-17T02:28:43.162Z,99.90
2018-10-17T02:31:11.706Z,99.90
2018-10-17T02:33:46.035Z,99.90
2018-10-17T02:36:14.556Z,99.90
2018-10-17T02:38:43.068Z,99.90
2018-10-17T02:41:12.646Z,99.90
2018-10-17T02:43:41.113Z,99.90
2018-10-17T02:46:09.637Z,99.90
2018-10-17T02:48:44.045Z,99.90
2018-10-17T02:51:12.549Z,99.90
2018-10-17T02:53:41.181Z,99.90
2018-10-17T02:56:09.709Z,99.90
2018-10-17T02:58:38.235Z,99.90
2018-10-17T03:01:06.846Z,99.90
2018-10-17T03:03:35.297Z,99.90
2018-10-17T03:06:03.842Z,99.90
2018-10-17T03:08:32.403Z,99.90
2018-10-17T03:11:00.936Z,99.90
2018-10-17T03:13:29.511Z,99.90
2018-10-17T03:15:58.028Z,99.90
2018-10-17T03:18:26.621Z,99.90
2018-10-17T03:20:55.202Z,99.90
2018-10-17T03:23:23.745Z,99.90
2018-10-17T03:25:52.245Z,99.90
2018-10-17T03:28:20.766Z,99.90
2018-10-17T03:30:49.511Z,99.90
2018-10-17T03:33:18.093Z,99.90
2018-10-17T03:35:46.642Z,99.90
2018-10-17T03:38:15.225Z,99.90
2018-10-17T03:40:43.751Z,99.90
2018-10-17T03:43:12.410Z,99.90
2018-10-17T03:45:40.898Z,99.90
2018-10-17T03:48:09.520Z,99.90
2018-10-17T03:50:38.045Z,99.90
2018-10-17T03:53:06.627Z,99.90
2018-10-17T03:55:35.099Z,99.90
2018-10-17T03:58:03.586Z,99.90
2018-10-17T04:00:32.104Z,99.90
2018-10-17T04:03:00.657Z,99.90
2018-10-17T04:05:41.588Z,99.90
2018-10-17T04:08:10.141Z,99.90
2018-10-17T04:10:38.685Z,99.90
2018-10-17T04:13:07.253Z,99.90
2018-10-17T04:15:35.841Z,99.90
2018-10-17T04:18:04.389Z,99.90
2018-10-17T04:20:32.954Z,99.90
2018-10-17T04:23:01.537Z,99.90
2018-10-17T04:25:30.094Z,99.90
2018-10-17T04:27:58.629Z,99.90
2018-10-17T04:30:29.260Z,99.90
2018-10-17T04:32:57.766Z,99.90
2018-10-17T04:35:26.306Z,99.90
2018-10-17T04:37:54.895Z,99.90
2018-10-17T04:40:23.447Z,99.90
2018-10-17T04:42:52.020Z,99.90
2018-10-17T04:45:20.545Z,99.90
2018-10-17T04:47:49.073Z,99.90
2018-10-17T04:50:17.625Z,99.90
2018-10-17T04:52:46.113Z,99.90
2018-10-17T04:55:14.771Z,99.90
2018-10-17T04:57:43.219Z,99.90
2018-10-17T05:00:12.806Z,99.90
2018-10-17T05:02:42.550Z,99.90
2018-10-17T05:05:11.323Z,99.90
2018-10-17T05:07:39.835Z,99.90
2018-10-17T05:10:09.529Z,99.90
2018-10-17T05:12:38.041Z,99.90
2018-10-17T05:15:06.771Z,99.90
2018-10-17T05:17:35.299Z,99.90
2018-10-17T05:20:04.074Z,99.90
2018-10-17T05:22:32.594Z,99.90
2018-10-17T05:25:01.161Z,99.90
2018-10-17T05:27:29.678Z,99.90
2018-10-17T05:29:58.257Z,99.90
2018-10-17T05:32:26.808Z,99.90
2018-10-17T05:34:55.361Z,99.90
2018-10-17T05:37:23.879Z,99.90
2018-10-17T05:39:52.453Z,99.90
2018-10-17T05:42:20.990Z,99.90
2018-10-17T05:44:49.523Z,99.90
2018-10-17T05:47:18.056Z,99.90
2018-10-17T05:49:46.561Z,99.90
2018-10-17T05:52:15.087Z,99.90
2018-10-17T05:54:47.064Z,99.90
2018-10-17T05:57:15.632Z,99.90
2018-10-17T05:59:44.146Z,99.90
2018-10-17T06:02:16.148Z,99.90
2018-10-17T06:04:44.633Z,99.90
2018-10-17T06:07:13.276Z,99.90
2018-10-17T06:09:41.812Z,99.90
2018-10-17T06:12:10.349Z,99.90
2018-10-17T06:14:38.937Z,99.90
2018-10-17T06:17:07.492Z,99.90
2018-10-17T06:19:36.114Z,99.90
2018-10-17T06:22:04.683Z,99.90
2018-10-17T06:24:33.191Z,99.90
2018-10-17T06:27:05.282Z,99.90
2018-10-17T06:29:33.794Z,99.90
2018-10-17T06:32:02.341Z,99.90
2018-10-17T06:34:30.906Z,99.90
2018-10-17T06:36:59.435Z,99.90
2018-10-17T06:39:27.940Z,99.90
2018-10-17T06:41:57.574Z,99.90
2018-10-17T06:44:26.166Z,99.90
2018-10-17T06:46:54.755Z,99.90
2018-10-17T06:49:23.210Z,99.90
2018-10-17T06:51:51.708Z,99.90
2018-10-17T06:54:20.220Z,99.90
2018-10-17T06:56:48.723Z,99.90
2018-10-17T06:59:17.398Z,99.90
2018-10-17T07:01:45.903Z,99.90
2018-10-17T07:04:14.439Z,99.90
2018-10-17T07:06:44.010Z,99.90
2018-10-17T07:09:12.597Z,99.90
2018-10-17T07:11:41.101Z,99.90
2018-10-17T07:14:09.612Z,99.90
2018-10-17T07:16:40.172Z,99.90
2018-10-17T07:19:08.784Z,99.90
2018-10-17T07:21:37.325Z,99.90
2018-10-17T07:24:05.914Z,99.90
2018-10-17T07:26:34.486Z,99.90
2018-10-17T07:29:03.068Z,99.90
2018-10-17T07:31:31.528Z,99.90
2018-10-17T07:34:00.098Z,99.90
2018-10-17T07:36:28.657Z,99.90
2018-10-17T07:38:57.229Z,99.90
2018-10-17T07:41:37.810Z,99.90
2018-10-17T07:44:06.566Z,99.90
2018-10-17T07:46:35.223Z,99.90
2018-10-17T07:49:03.781Z,99.90
2018-10-17T07:51:39.902Z,99.90
2018-10-17T07:54:08.505Z,99.90
2018-10-17T07:56:37.007Z,99.90
2018-10-17T07:59:05.817Z,99.90
2018-10-17T08:01:34.324Z,99.90
2018-10-17T08:04:10.025Z,99.90
2018-10-17T08:06:55.077Z,99.90
2018-10-17T08:09:25.739Z,99.90
2018-10-17T08:11:54.381Z,99.90
2018-10-17T08:14:22.862Z,99.90
2018-10-17T08:17:05.469Z,99.90
2018-10-17T08:19:34.785Z,99.90
2018-10-17T08:22:03.314Z,99.90
2018-10-17T08:24:31.832Z,99.90
2018-10-17T08:27:00.333Z,99.90
2018-10-17T08:29:28.911Z,99.90
2018-10-17T08:31:57.413Z,99.90
2018-10-17T08:34:25.957Z,99.90
2018-10-17T08:36:54.650Z,99.90
2018-10-17T08:39:23.038Z,99.90
2018-10-17T08:41:51.557Z,99.90
2018-10-17T08:44:20.142Z,99.90
2018-10-17T08:46:48.691Z,99.90
2018-10-17T08:49:17.203Z,99.90
2018-10-17T08:51:45.749Z,99.90
2018-10-17T08:54:14.328Z,99.90
2018-10-17T08:56:42.866Z,99.90
2018-10-17T08:59:11.458Z,99.90
2018-10-17T09:01:40.087Z,99.90
2018-10-17T09:04:08.590Z,99.90
2018-10-17T09:06:37.146Z,99.90
2018-10-17T09:09:09.305Z,99.90
2018-10-17T09:11:38.193Z,99.90
2018-10-17T09:14:07.906Z,99.90
2018-10-17T09:16:36.462Z,99.90
2018-10-17T09:19:05.138Z,99.90
2018-10-17T09:21:34.130Z,99.90
2018-10-17T09:24:02.345Z,99.90
2018-10-17T09:26:30.821Z,99.90
2018-10-17T09:28:59.342Z,99.90
2018-10-17T09:31:28.045Z,99.90
2018-10-17T09:33:56.744Z,99.90
2018-10-17T09:36:25.529Z,99.90
2018-10-17T09:38:54.082Z,99.90
2018-10-17T09:41:22.689Z,99.90
2018-10-17T09:43:51.210Z,99.90
2018-10-17T09:46:19.743Z,99.90
2018-10-17T09:49:10.160Z,99.90
2018-10-17T09:51:40.945Z,99.90
2018-10-17T09:54:09.575Z,99.90
2018-10-17T09:56:38.137Z,99.90
2018-10-17T09:59:06.647Z,99.90
2018-10-17T10:01:40.402Z,99.90
2018-10-17T10:04:08.941Z,99.90
2018-10-17T10:06:37.480Z,99.90
2018-10-17T10:09:08.005Z,99.90
2018-10-17T10:11:36.580Z,99.90
2018-10-17T10:14:05.174Z,99.90
2018-10-17T10:16:33.710Z,99.90
2018-10-17T10:19:02.289Z,99.90
2018-10-17T10:21:30.973Z,99.90
2018-10-17T10:24:00.076Z,99.90
2018-10-17T10:26:34.825Z,99.90
2018-10-17T10:29:03.374Z,99.90
2018-10-17T10:31:31.887Z,99.90
2018-10-17T10:34:00.425Z,99.90
2018-10-17T10:36:28.956Z,99.90
2018-10-17T10:38:57.494Z,99.90
2018-10-17T10:41:26.014Z,99.90
2018-10-17T10:43:54.557Z,99.90
2018-10-17T10:46:23.124Z,99.90
2018-10-17T10:48:51.663Z,99.90
2018-10-17T10:51:20.275Z,99.90
2018-10-17T10:53:48.709Z,99.90
2018-10-17T10:56:17.294Z,99.90
2018-10-17T10:58:51.457Z,99.90
2018-10-17T11:01:20.006Z,99.90
2018-10-17T11:03:48.578Z,99.90
2018-10-17T11:06:17.118Z,99.90
2018-10-17T11:08:45.702Z,99.90
2018-10-17T11:11:14.289Z,99.90
2018-10-17T11:13:48.219Z,99.90
2018-10-17T11:16:16.736Z,99.90
2018-10-17T11:18:45.293Z,99.90
2018-10-17T11:21:13.874Z,99.90
2018-10-17T11:23:42.370Z,99.90
2018-10-17T11:26:10.900Z,99.90
2018-10-17T11:28:39.463Z,99.90
2018-10-17T11:31:07.995Z,99.90
2018-10-17T11:33:36.549Z,99.90
2018-10-17T11:36:05.105Z,99.90
2018-10-17T11:38:33.652Z,99.90
2018-10-17T11:41:02.250Z,99.90
2018-10-17T11:43:30.815Z,99.90
2018-10-17T11:45:59.367Z,99.90
2018-10-17T11:48:27.869Z,99.90
2018-10-17T11:50:56.467Z,99.90
2018-10-17T11:53:24.999Z,99.90
2018-10-17T11:55:53.556Z,99.90
2018-10-17T11:58:22.085Z,99.90
2018-10-17T12:00:50.659Z,99.90
2018-10-17T12:03:19.272Z,99.90
2018-10-17T12:05:47.913Z,99.90
2018-10-17T12:08:23.075Z,99.90
2018-10-17T12:10:51.661Z,99.90
2018-10-17T12:13:20.200Z,99.90
2018-10-17T12:15:48.724Z,99.90
2018-10-17T12:18:17.291Z,99.90
2018-10-17T12:20:45.893Z,99.90
2018-10-17T12:23:14.395Z,99.90
2018-10-17T12:25:42.982Z,99.90
2018-10-17T12:28:11.692Z,99.90
2018-10-17T12:30:40.112Z,99.90
2018-10-17T12:33:08.634Z,99.90
2018-10-17T12:35:37.218Z,99.90
2018-10-17T12:38:09.426Z,99.90
2018-10-17T12:40:38.091Z,99.90
2018-10-17T12:43:06.633Z,99.90
2018-10-17T12:45:35.185Z,99.90
2018-10-17T12:48:03.781Z,99.90
2018-10-17T12:50:32.351Z,99.90
2018-10-17T12:53:01.097Z,99.90
2018-10-17T12:55:29.457Z,99.90
2018-10-17T12:57:57.974Z,99.90
2018-10-17T13:00:26.519Z,99.90
2018-10-17T13:02:55.065Z,99.90
2018-10-17T13:05:23.609Z,99.90
2018-10-17T13:07:52.138Z,99.90
2018-10-17T13:10:20.660Z,99.90
2018-10-17T13:12:49.175Z,98.90
2018-10-17T13:15:17.702Z,99.90
2018-10-17T13:17:46.565Z,99.90
2018-10-17T13:20:15.158Z,99.90
2018-10-17T13:22:43.735Z,99.80
2018-10-17T13:25:12.259Z,99.80
2018-10-17T13:27:41.825Z,99.30
2018-10-17T13:30:10.380Z,99.10
2018-10-17T13:32:38.930Z,99.70
2018-10-17T13:35:07.597Z,99.00
2018-10-17T13:37:36.105Z,99.50
2018-10-17T13:40:04.741Z,99.80
2018-10-17T13:42:33.352Z,99.60
2018-10-17T13:45:14.077Z,99.80
2018-10-17T13:47:42.629Z,99.40
2018-10-17T13:50:11.229Z,99.60
2018-10-17T13:52:39.763Z,98.80
2018-10-17T13:55:08.399Z,99.70
2018-10-17T13:57:37.019Z,99.10
2018-10-17T14:00:06.777Z,98.80
2018-10-17T14:02:35.305Z,98.70
2018-10-17T14:05:03.918Z,99.20
2018-10-17T14:07:32.462Z,98.60
2018-10-17T14:10:00.990Z,98.00
2018-10-17T14:12:29.530Z,97.90
2018-10-17T14:14:59.178Z,97.70
2018-10-17T14:17:27.694Z,98.60
2018-10-17T14:19:56.256Z,98.20
2018-10-17T14:25:21.995Z,97.80
2018-10-17T14:27:50.538Z,97.70
2018-10-17T14:30:19.112Z,97.50
2018-10-17T14:32:47.663Z,97.30
2018-10-17T14:35:32.715Z,98.50
2018-10-17T14:38:01.501Z,97.60
2018-10-17T14:40:29.954Z,97.40
2018-10-17T14:43:10.446Z,97.70
2018-10-17T14:45:39.017Z,98.00
2018-10-17T14:48:08.319Z,97.90
2018-10-17T14:50:36.950Z,98.80
2018-10-17T14:53:23.827Z,99.20
2018-10-17T14:55:55.404Z,99.50
2018-10-17T14:58:23.928Z,99.90
2018-10-17T15:00:52.548Z,99.90
2018-10-17T15:03:27.342Z,99.90
2018-10-17T15:05:55.987Z,99.90
2018-10-17T15:08:24.471Z,99.90
2018-10-17T15:10:54.408Z,99.90
2018-10-17T15:13:22.665Z,99.90
2018-10-17T15:15:51.218Z,99.90
2018-10-17T15:18:19.935Z,99.90
2018-10-17T15:20:48.465Z,99.90
2018-10-17T15:23:17.313Z,99.90
2018-10-17T15:25:45.825Z,99.90
2018-10-17T15:28:14.371Z,99.90
2018-10-17T15:30:42.922Z,99.90
2018-10-17T15:33:11.499Z,99.90
2018-10-17T15:35:40.360Z,99.90
2018-10-17T15:38:08.884Z,99.90
2018-10-17T15:40:37.432Z,99.90
2018-10-17T15:43:06.060Z,99.90
2018-10-17T15:45:34.597Z,99.90
2018-10-17T15:48:03.090Z,99.90
2018-10-17T15:50:31.646Z,99.90
2018-10-17T15:53:00.171Z,99.90
2018-10-17T15:55:28.689Z,99.90
2018-10-17T15:57:57.211Z,99.90
2018-10-17T16:00:25.737Z,99.90
2018-10-17T16:02:54.224Z,99.90
2018-10-17T16:05:22.774Z,99.90
2018-10-17T16:07:51.359Z,99.90
2018-10-17T16:10:20.063Z,99.90
2018-10-17T16:12:48.634Z,99.90
2018-10-17T16:15:17.149Z,99.90
2018-10-17T16:17:45.665Z,99.90
2018-10-17T16:20:14.234Z,99.90
2018-10-17T16:22:42.885Z,99.90
2018-10-17T16:25:11.384Z,99.90
2018-10-17T16:27:39.971Z,99.90
2018-10-17T16:30:10.302Z,99.90
2018-10-17T16:32:42.292Z,99.90
2018-10-17T16:35:10.888Z,99.90
2018-10-17T16:37:39.716Z,99.90
2018-10-17T16:40:09.118Z,99.90
2018-10-17T16:42:37.659Z,99.90
2018-10-17T16:45:07.413Z,99.90
2018-10-17T16:47:36.000Z,99.90
2018-10-17T16:50:05.049Z,99.90
2018-10-17T16:52:33.624Z,99.90
2018-10-17T16:55:02.232Z,99.90
2018-10-17T16:57:30.723Z,99.90
2018-10-17T16:59:59.301Z,99.90
2018-10-17T17:02:27.830Z,99.90
2018-10-17T17:04:56.355Z,99.90
2018-10-17T17:07:24.989Z,99.90
2018-10-17T17:09:53.514Z,99.90
2018-10-17T17:12:22.028Z,99.90
2018-10-17T17:14:50.688Z,99.90
2018-10-17T17:17:20.298Z,99.90
2018-10-17T17:19:48.808Z,99.90
2018-10-17T17:22:17.321Z,99.90
2018-10-17T17:24:46.477Z,99.90
2018-10-17T17:27:18.276Z,99.90
2018-10-17T17:29:46.843Z,99.90
2018-10-17T17:32:15.301Z,99.90
2018-10-17T17:34:43.842Z,99.90
2018-10-17T17:37:12.425Z,99.90
2018-10-17T17:39:40.981Z,99.90
2018-10-17T17:42:09.584Z,99.90
2018-10-17T17:44:38.185Z,99.90
2018-10-17T17:47:07.234Z,99.90
2018-10-17T17:49:35.811Z,99.90
2018-10-17T17:52:04.536Z,99.90
2018-10-17T17:54:33.090Z,99.90
2018-10-17T17:57:01.657Z,99.90
2018-10-17T17:59:30.242Z,99.90
2018-10-17T18:01:58.805Z,99.90
2018-10-17T18:04:27.422Z,99.90
2018-10-17T18:06:59.165Z,99.90
2018-10-17T18:09:27.735Z,99.90
2018-10-17T18:11:56.257Z,99.90
2018-10-17T18:14:24.894Z,99.90
2018-10-17T18:16:53.346Z,99.90
2018-10-17T18:19:22.002Z,99.90
2018-10-17T18:21:50.805Z,99.90
2018-10-17T18:24:19.583Z,99.90
2018-10-17T18:26:48.407Z,99.90
2018-10-17T18:29:17.249Z,99.90
2018-10-17T18:31:45.963Z,99.90
2018-10-17T18:34:14.767Z,99.90
2018-10-17T18:36:44.571Z,99.90
2018-10-17T18:39:13.362Z,99.90
2018-10-17T18:41:42.037Z,99.90
2018-10-17T18:44:10.577Z,99.90
2018-10-17T18:46:39.107Z,99.90
2018-10-17T18:49:07.654Z,99.90
2018-10-17T18:51:36.213Z,99.90
2018-10-17T18:54:05.212Z,99.90
2018-10-17T18:56:33.784Z,99.90
2018-10-17T18:59:02.385Z,99.90
2018-10-17T19:01:31.015Z,99.90
2018-10-17T19:03:59.582Z,99.90
2018-10-17T19:06:28.139Z,99.90
2018-10-17T19:09:02.341Z,99.90
2018-10-17T19:11:30.868Z,99.90
2018-10-17T19:13:59.482Z,99.90
2018-10-17T19:16:28.243Z,99.90
2018-10-17T19:19:10.490Z,99.90
2018-10-17T19:21:40.175Z,99.90
2018-10-17T19:24:15.242Z,99.90
2018-10-17T19:26:45.895Z,99.90
2018-10-17T19:29:15.480Z,99.90
2018-10-17T19:31:44.042Z,99.90
2018-10-17T19:34:12.574Z,99.90
2018-10-17T19:36:41.145Z,99.90
2018-10-17T19:39:11.332Z,99.90
2018-10-17T19:41:41.082Z,99.90
2018-10-17T19:44:09.649Z,99.90
2018-10-17T19:46:38.292Z,99.90
2018-10-17T19:49:13.036Z,99.90
2018-10-17T19:51:41.585Z,99.90
2018-10-17T19:54:10.313Z,99.90
2018-10-17T19:56:45.535Z,99.90
2018-10-17T19:59:14.046Z,99.90
2018-10-17T20:01:50.912Z,99.90
2018-10-17T20:04:19.442Z,99.90
2018-10-17T20:06:47.988Z,99.90
2018-10-17T20:09:16.642Z,99.90
2018-10-17T20:11:47.225Z,99.90
2018-10-17T20:14:26.651Z,99.90
2018-10-17T20:16:55.129Z,99.90
2018-10-17T20:19:34.302Z,99.90
2018-10-17T20:22:09.423Z,99.90
2018-10-17T20:24:37.995Z,99.90
2018-10-17T20:27:06.951Z,99.90
2018-10-17T20:29:35.436Z,99.90
2018-10-17T20:32:03.976Z,99.90
2018-10-17T20:34:44.450Z,99.90
2018-10-17T20:37:12.976Z,99.90
2018-10-17T20:39:41.492Z,99.90
2018-10-17T20:42:10.100Z,99.90
2018-10-17T20:44:48.665Z,99.90
2018-10-17T20:47:17.211Z,99.90
2018-10-17T20:49:45.758Z,99.90
2018-10-17T20:52:14.343Z,99.90
2018-10-17T20:54:42.875Z,99.90
2018-10-17T20:57:11.421Z,99.90
2018-10-17T20:59:39.919Z,99.90
2018-10-17T21:02:08.463Z,99.90
2018-10-17T21:04:37.127Z,99.90
2018-10-17T21:07:05.838Z,99.90
2018-10-17T21:09:34.394Z,99.90
2018-10-17T21:12:03.007Z,99.90
2018-10-17T21:14:31.527Z,99.90
2018-10-17T21:17:00.074Z,99.90
2018-10-17T21:19:32.986Z,99.90
2018-10-17T21:22:01.557Z,99.90
2018-10-17T21:24:30.300Z,99.90
2018-10-17T21:27:09.626Z,99.90
2018-10-17T21:29:38.176Z,99.90
2018-10-17T21:32:06.932Z,99.90
2018-10-17T21:34:35.344Z,99.90
2018-10-17T21:37:08.683Z,99.90
2018-10-17T21:39:37.232Z,99.90
2018-10-17T21:42:05.753Z,99.90
2018-10-17T21:44:34.312Z,99.90
2018-10-17T21:47:02.837Z,99.90
2018-10-17T21:49:33.368Z,99.90
2018-10-17T21:52:01.868Z,99.90
2018-10-17T21:54:30.380Z,99.90
2018-10-17T21:57:04.957Z,99.90
2018-10-17T21:59:33.510Z,99.90
2018-10-17T22:02:02.029Z,99.90
2018-10-17T22:04:30.595Z,99.90
2018-10-17T22:09:57.788Z,99.90
2018-10-17T22:12:26.210Z,99.90
2018-10-17T22:14:54.764Z,99.90
2018-10-17T22:17:30.496Z,99.90
2018-10-17T22:19:59.009Z,99.90
2018-10-17T22:22:27.875Z,99.90
2018-10-17T22:24:56.973Z,99.90
2018-10-17T22:27:25.558Z,99.90
2018-10-17T22:29:55.288Z,99.90
2018-10-17T22:32:23.705Z,99.90
2018-10-17T22:34:52.254Z,99.90
2018-10-17T22:37:20.825Z,99.90
2018-10-17T22:39:49.345Z,99.90
2018-10-17T22:42:23.550Z,99.90
2018-10-17T22:44:52.120Z,99.90
2018-10-17T22:47:20.675Z,99.90
2018-10-17T22:49:49.197Z,99.90
2018-10-17T22:52:29.458Z,99.90
2018-10-17T22:54:57.980Z,99.90
2018-10-17T22:57:26.513Z,99.90
2018-10-17T22:59:55.032Z,99.90
2018-10-17T23:02:23.541Z,99.90
2018-10-17T23:04:52.056Z,99.90
2018-10-17T23:07:20.560Z,99.90
2018-10-17T23:09:49.105Z,99.90
2018-10-17T23:12:17.640Z,99.90
2018-10-17T23:14:46.157Z,99.90
2018-10-17T23:17:14.693Z,99.90
2018-10-17T23:19:43.201Z,99.90
2018-10-17T23:22:11.745Z,99.90
2018-10-17T23:24:40.257Z,99.90
2018-10-17T23:27:08.797Z,99.90
2018-10-17T23:29:37.302Z,99.90
2018-10-17T23:32:06.083Z,99.90
2018-10-17T23:34:34.630Z,99.90
2018-10-17T23:37:03.193Z,99.90
2018-10-17T23:39:31.711Z,99.90
2018-10-17T23:42:00.312Z,99.90
2018-10-17T23:44:28.790Z,99.90
2018-10-17T23:47:05.446Z,99.90
2018-10-17T23:49:34.137Z,99.90
2018-10-17T23:52:02.700Z,99.90
2018-10-17T23:54:31.335Z,99.90
2018-10-17T23:56:59.911Z,99.90
2018-10-17T23:59:28.505Z,99.90
